createdAt,value
2017-08-31T00:00:34.156Z,0
2017-08-31T00:01:14.611Z,0
2017-08-31T00:01:55.073Z,0
2017-08-31T00:02:35.532Z,0
2017-08-31T00:03:16.023Z,0
2017-08-31T00:03:56.440Z,0
2017-08-31T00:04:36.885Z,0
2017-08-31T00:05:17.333Z,0
2017-08-31T00:05:57.781Z,0
2017-08-31T00:06:38.235Z,0
2017-08-31T00:07:18.683Z,0
2017-08-31T00:07:59.179Z,0
2017-08-31T00:08:39.626Z,0
2017-08-31T00:09:20.080Z,0
2017-08-31T00:10:00.532Z,0
2017-08-31T00:10:40.986Z,0
2017-08-31T00:11:21.451Z,0
2017-08-31T00:12:01.900Z,0
2017-08-31T00:12:42.357Z,0
2017-08-31T00:13:22.813Z,0
2017-08-31T00:14:03.263Z,0
2017-08-31T00:14:43.714Z,0
2017-08-31T00:15:24.192Z,0
2017-08-31T00:16:04.617Z,0
2017-08-31T00:16:45.067Z,0
2017-08-31T00:17:25.521Z,0
2017-08-31T00:18:05.974Z,0
2017-08-31T00:18:46.440Z,0
2017-08-31T00:19:26.891Z,0
2017-08-31T00:20:07.355Z,0
2017-08-31T00:20:47.811Z,0
2017-08-31T00:21:28.265Z,0
2017-08-31T00:22:08.755Z,0
2017-08-31T00:22:49.216Z,0
2017-08-31T00:23:29.669Z,0
2017-08-31T00:24:10.122Z,0
2017-08-31T00:24:50.585Z,0
2017-08-31T00:25:31.042Z,0
2017-08-31T00:26:11.516Z,0
2017-08-31T00:26:51.972Z,0
2017-08-31T00:27:32.435Z,0
2017-08-31T00:28:12.891Z,0
2017-08-31T00:28:53.344Z,0
2017-08-31T00:29:33.793Z,0
2017-08-31T00:30:14.243Z,0
2017-08-31T00:30:54.699Z,0
2017-08-31T00:31:35.162Z,0
2017-08-31T00:32:15.619Z,0
2017-08-31T00:32:56.072Z,0
2017-08-31T00:33:36.608Z,0
2017-08-31T00:34:17.057Z,0
2017-08-31T00:34:57.511Z,0
2017-08-31T00:35:37.968Z,0
2017-08-31T00:36:18.424Z,0
2017-08-31T00:36:58.882Z,0
2017-08-31T00:37:39.488Z,0
2017-08-31T00:38:19.943Z,0
2017-08-31T00:39:00.395Z,0
2017-08-31T00:39:40.838Z,0
2017-08-31T00:40:21.302Z,0
2017-08-31T00:41:01.813Z,0
2017-08-31T00:41:42.278Z,0
2017-08-31T00:42:22.737Z,0
2017-08-31T00:43:03.304Z,0
2017-08-31T00:43:43.745Z,0
2017-08-31T00:44:24.199Z,0
2017-08-31T00:45:04.653Z,0
2017-08-31T00:45:45.114Z,0
2017-08-31T00:46:25.571Z,0
2017-08-31T00:47:06.088Z,0
2017-08-31T00:47:46.566Z,0
2017-08-31T00:48:27.026Z,0
2017-08-31T00:49:07.480Z,0
2017-08-31T00:49:47.940Z,0
2017-08-31T00:50:28.393Z,0
2017-08-31T00:51:08.857Z,0
2017-08-31T00:51:49.317Z,0
2017-08-31T00:52:29.778Z,0
2017-08-31T00:53:10.222Z,0
2017-08-31T00:53:50.681Z,0
2017-08-31T00:54:31.130Z,0
2017-08-31T00:55:11.578Z,0
2017-08-31T00:55:52.032Z,0
2017-08-31T00:56:32.490Z,0
2017-08-31T00:57:12.952Z,0
2017-08-31T00:57:53.411Z,0
2017-08-31T00:58:33.855Z,0
2017-08-31T00:59:14.308Z,0
2017-08-31T00:59:54.765Z,0
2017-08-31T01:00:35.226Z,0
2017-08-31T01:01:15.677Z,0
2017-08-31T01:01:56.135Z,0
2017-08-31T01:02:36.595Z,0
2017-08-31T01:03:17.051Z,0
2017-08-31T01:03:57.505Z,0
2017-08-31T01:04:37.957Z,0
2017-08-31T01:05:18.422Z,0
2017-08-31T01:05:58.876Z,0
2017-08-31T01:06:39.338Z,0
2017-08-31T01:07:19.798Z,0
2017-08-31T01:08:00.251Z,0
2017-08-31T01:08:40.712Z,0
2017-08-31T01:09:21.157Z,0
2017-08-31T01:10:01.613Z,0
2017-08-31T01:10:42.069Z,0
2017-08-31T01:11:22.519Z,0
2017-08-31T01:12:02.976Z,0
2017-08-31T01:12:43.432Z,0
2017-08-31T01:13:23.889Z,0
2017-08-31T01:14:04.346Z,0
2017-08-31T01:14:44.797Z,0
2017-08-31T01:15:25.251Z,0
2017-08-31T01:16:05.700Z,0
2017-08-31T01:16:46.150Z,0
2017-08-31T01:17:26.627Z,0
2017-08-31T01:18:07.063Z,0
2017-08-31T01:18:47.518Z,0
2017-08-31T01:19:27.973Z,0
2017-08-31T01:20:08.432Z,0
2017-08-31T01:20:48.883Z,0
2017-08-31T01:21:29.327Z,0
2017-08-31T01:22:09.775Z,0
2017-08-31T01:22:50.227Z,0
2017-08-31T01:23:30.678Z,0
2017-08-31T01:24:11.141Z,0
2017-08-31T01:24:51.596Z,0
2017-08-31T01:25:32.054Z,0
2017-08-31T01:26:12.514Z,0
2017-08-31T01:26:52.972Z,0
2017-08-31T01:27:33.425Z,0
2017-08-31T01:28:13.883Z,0
2017-08-31T01:28:54.340Z,0
2017-08-31T01:29:34.798Z,0
2017-08-31T01:30:15.265Z,0
2017-08-31T01:30:55.710Z,0
2017-08-31T01:31:36.158Z,0
2017-08-31T01:32:16.611Z,0
2017-08-31T01:32:57.070Z,0
2017-08-31T01:33:37.523Z,0
2017-08-31T01:34:17.976Z,0
2017-08-31T01:34:58.432Z,0
2017-08-31T01:35:38.888Z,0
2017-08-31T01:36:19.347Z,0
2017-08-31T01:36:59.799Z,0
2017-08-31T01:37:40.257Z,0
2017-08-31T01:38:20.710Z,0
2017-08-31T01:39:01.188Z,0
2017-08-31T01:39:41.608Z,0
2017-08-31T01:40:22.069Z,0
2017-08-31T01:41:02.528Z,0
2017-08-31T01:41:42.982Z,0
2017-08-31T01:42:23.434Z,0
2017-08-31T01:43:03.886Z,0
2017-08-31T01:43:44.335Z,0
2017-08-31T01:44:24.790Z,0
2017-08-31T01:45:05.250Z,0
2017-08-31T01:45:45.709Z,0
2017-08-31T01:46:26.162Z,0
2017-08-31T01:47:06.617Z,0
2017-08-31T01:47:47.070Z,0
2017-08-31T01:48:27.527Z,0
2017-08-31T01:49:07.979Z,0
2017-08-31T01:49:48.436Z,0
2017-08-31T01:50:28.894Z,0
2017-08-31T01:51:09.352Z,0
2017-08-31T01:51:49.811Z,0
2017-08-31T01:52:30.256Z,0
2017-08-31T01:53:10.721Z,0
2017-08-31T01:53:51.180Z,0
2017-08-31T01:54:31.635Z,0
2017-08-31T01:55:12.090Z,0
2017-08-31T01:55:52.569Z,0
2017-08-31T01:56:33.007Z,0
2017-08-31T01:57:13.465Z,0
2017-08-31T01:57:53.925Z,0
2017-08-31T01:58:34.383Z,0
2017-08-31T01:59:14.847Z,0
2017-08-31T01:59:55.295Z,0
2017-08-31T02:00:35.739Z,0
2017-08-31T02:01:16.202Z,0
2017-08-31T02:01:56.669Z,0
2017-08-31T02:02:37.099Z,0
2017-08-31T02:03:17.571Z,0
2017-08-31T02:03:58.012Z,0
2017-08-31T02:04:38.467Z,0
2017-08-31T02:05:18.926Z,0
2017-08-31T02:05:59.382Z,0
2017-08-31T02:06:39.832Z,0
2017-08-31T02:07:20.293Z,0
2017-08-31T02:08:00.749Z,0
2017-08-31T02:08:41.205Z,0
2017-08-31T02:09:21.680Z,0
2017-08-31T02:10:02.118Z,0
2017-08-31T02:10:42.575Z,0
2017-08-31T02:11:23.022Z,0
2017-08-31T02:12:03.508Z,0
2017-08-31T02:12:43.984Z,0
2017-08-31T02:13:24.437Z,0
2017-08-31T02:14:04.894Z,0
2017-08-31T02:14:45.356Z,0
2017-08-31T02:15:25.828Z,0
2017-08-31T02:16:06.287Z,0
2017-08-31T02:16:46.742Z,0
2017-08-31T02:17:27.193Z,0
2017-08-31T02:18:07.644Z,0
2017-08-31T02:18:48.121Z,0
2017-08-31T02:19:28.572Z,0
2017-08-31T02:20:09.031Z,0
2017-08-31T02:20:49.486Z,0
2017-08-31T02:21:29.942Z,0
2017-08-31T02:22:10.406Z,0
2017-08-31T02:22:50.866Z,0
2017-08-31T02:23:31.312Z,0
2017-08-31T02:24:11.756Z,0
2017-08-31T02:24:52.217Z,0
2017-08-31T02:25:32.681Z,0
2017-08-31T02:26:13.130Z,0
2017-08-31T02:26:53.578Z,0
2017-08-31T02:27:34.026Z,0
2017-08-31T02:28:14.471Z,0
2017-08-31T02:28:54.928Z,0
2017-08-31T02:29:35.395Z,0
2017-08-31T02:30:15.906Z,0
2017-08-31T02:30:56.360Z,0
2017-08-31T02:33:09.179Z,0
2017-08-31T02:33:49.630Z,0
2017-08-31T02:34:30.094Z,0
2017-08-31T02:35:10.586Z,0
2017-08-31T02:35:51.039Z,0
2017-08-31T02:36:31.484Z,0
2017-08-31T02:37:11.932Z,0
2017-08-31T02:37:52.379Z,0
2017-08-31T02:38:32.828Z,0
2017-08-31T02:39:13.281Z,0
2017-08-31T02:39:53.733Z,0
2017-08-31T02:40:34.184Z,0
2017-08-31T02:41:14.650Z,0
2017-08-31T02:41:55.109Z,0
2017-08-31T02:42:35.558Z,0
2017-08-31T02:43:16.002Z,0
2017-08-31T02:43:56.454Z,0
2017-08-31T02:44:36.914Z,0
2017-08-31T02:45:17.366Z,0
2017-08-31T02:45:57.830Z,0
2017-08-31T02:46:38.282Z,0
2017-08-31T02:47:18.740Z,0
2017-08-31T02:47:59.196Z,0
2017-08-31T02:48:39.651Z,0
2017-08-31T02:49:20.217Z,0
2017-08-31T02:50:00.668Z,0
2017-08-31T02:50:41.234Z,0
2017-08-31T02:51:21.692Z,0
2017-08-31T02:52:02.148Z,0
2017-08-31T02:52:42.602Z,0
2017-08-31T02:53:23.059Z,0
2017-08-31T02:54:03.499Z,0
2017-08-31T02:54:43.957Z,0
2017-08-31T02:55:24.393Z,0
2017-08-31T02:56:04.848Z,0
2017-08-31T02:56:45.298Z,0
2017-08-31T02:57:25.832Z,0
2017-08-31T02:58:06.274Z,0
2017-08-31T02:58:46.743Z,0
2017-08-31T02:59:27.197Z,0
2017-08-31T03:00:07.699Z,0
2017-08-31T03:00:48.161Z,0
2017-08-31T03:01:28.613Z,0
2017-08-31T03:02:09.152Z,0
2017-08-31T03:02:49.600Z,0
2017-08-31T03:03:30.053Z,0
2017-08-31T03:04:10.501Z,0
2017-08-31T03:04:50.951Z,0
2017-08-31T03:05:31.432Z,0
2017-08-31T03:06:11.885Z,0
2017-08-31T03:06:52.329Z,0
2017-08-31T03:07:32.799Z,0
2017-08-31T03:08:13.251Z,0
2017-08-31T03:08:53.705Z,0
2017-08-31T03:09:34.165Z,0
2017-08-31T03:10:14.620Z,0
2017-08-31T03:10:55.078Z,0
2017-08-31T03:11:35.539Z,0
2017-08-31T03:12:15.986Z,0
2017-08-31T03:12:56.440Z,0
2017-08-31T03:13:36.898Z,0
2017-08-31T03:14:17.351Z,0
2017-08-31T03:14:57.808Z,0
2017-08-31T03:15:38.262Z,0
2017-08-31T03:16:18.718Z,0
2017-08-31T03:16:59.176Z,0
2017-08-31T03:17:39.635Z,0
2017-08-31T03:18:20.089Z,0
2017-08-31T03:19:00.543Z,0
2017-08-31T03:19:40.997Z,0
2017-08-31T03:20:21.449Z,0
2017-08-31T03:21:01.892Z,0
2017-08-31T03:21:42.346Z,0
2017-08-31T03:22:22.805Z,0
2017-08-31T03:23:03.259Z,0
2017-08-31T03:23:43.712Z,0
2017-08-31T03:24:24.162Z,0
2017-08-31T03:25:04.616Z,0
2017-08-31T03:25:45.075Z,0
2017-08-31T03:26:25.531Z,0
2017-08-31T03:27:05.989Z,0
2017-08-31T03:27:46.444Z,0
2017-08-31T03:28:26.894Z,0
2017-08-31T03:29:07.356Z,0
2017-08-31T03:29:47.809Z,0
2017-08-31T03:30:28.266Z,0
2017-08-31T03:31:08.831Z,0
2017-08-31T03:31:49.280Z,0
2017-08-31T03:32:29.734Z,0
2017-08-31T03:33:10.185Z,0
2017-08-31T03:33:50.641Z,0
2017-08-31T03:34:31.091Z,0
2017-08-31T03:35:11.540Z,0
2017-08-31T03:35:51.994Z,0
2017-08-31T03:36:32.445Z,0
2017-08-31T03:37:12.896Z,0
2017-08-31T03:37:53.351Z,0
2017-08-31T03:38:33.809Z,0
2017-08-31T03:41:06.811Z,0
2017-08-31T03:41:47.264Z,0
2017-08-31T03:42:27.743Z,0
2017-08-31T03:43:08.190Z,0
2017-08-31T03:43:48.637Z,0
2017-08-31T03:44:29.088Z,0
2017-08-31T03:45:09.534Z,0
2017-08-31T03:45:49.990Z,0
2017-08-31T03:46:30.446Z,0
2017-08-31T03:47:10.899Z,0
2017-08-31T03:47:51.371Z,0
2017-08-31T03:48:31.823Z,0
2017-08-31T03:49:12.282Z,0
2017-08-31T03:49:52.738Z,0
2017-08-31T03:50:33.189Z,0
2017-08-31T03:51:13.649Z,0
2017-08-31T03:51:54.103Z,0
2017-08-31T03:52:34.561Z,0
2017-08-31T03:53:15.014Z,0
2017-08-31T03:53:55.462Z,0
2017-08-31T03:54:36.000Z,0
2017-08-31T03:55:16.457Z,0
2017-08-31T03:55:56.918Z,0
2017-08-31T03:56:37.363Z,0
2017-08-31T03:57:17.809Z,0
2017-08-31T03:57:58.261Z,0
2017-08-31T03:58:38.715Z,0
2017-08-31T03:59:19.167Z,0
2017-08-31T03:59:59.624Z,0
2017-08-31T04:00:40.078Z,0
2017-08-31T04:01:20.532Z,0
2017-08-31T04:02:00.986Z,0
2017-08-31T04:02:41.433Z,0
2017-08-31T04:03:21.876Z,0
2017-08-31T04:04:02.338Z,0
2017-08-31T04:04:42.796Z,0
2017-08-31T04:05:23.229Z,0
2017-08-31T04:06:03.682Z,0
2017-08-31T04:06:44.133Z,0
2017-08-31T04:07:24.588Z,0
2017-08-31T04:08:05.043Z,0
2017-08-31T04:08:45.499Z,0
2017-08-31T04:09:25.954Z,0
2017-08-31T04:10:06.441Z,0
2017-08-31T04:10:46.902Z,0
2017-08-31T04:11:27.330Z,0
2017-08-31T04:12:07.773Z,0
2017-08-31T04:12:48.273Z,0
2017-08-31T04:13:28.714Z,0
2017-08-31T04:14:09.163Z,0
2017-08-31T04:14:49.659Z,0
2017-08-31T04:15:30.110Z,0
2017-08-31T04:16:10.559Z,0
2017-08-31T04:16:51.019Z,0
2017-08-31T04:17:31.479Z,0
2017-08-31T04:18:11.937Z,0
2017-08-31T04:18:52.389Z,0
2017-08-31T04:19:32.846Z,0
2017-08-31T04:20:13.302Z,0
2017-08-31T04:20:53.783Z,0
2017-08-31T04:21:34.226Z,0
2017-08-31T04:22:14.678Z,0
2017-08-31T04:22:55.142Z,0
2017-08-31T04:23:35.611Z,0
2017-08-31T04:24:16.077Z,0
2017-08-31T04:24:56.528Z,0
2017-08-31T04:25:36.970Z,4
2017-08-31T04:26:17.420Z,4
2017-08-31T04:26:57.873Z,4
2017-08-31T04:27:38.329Z,4
2017-08-31T04:28:18.776Z,4
2017-08-31T04:28:59.236Z,4
2017-08-31T04:29:39.673Z,4
2017-08-31T04:30:20.136Z,4
2017-08-31T04:31:00.583Z,4
2017-08-31T04:31:41.044Z,4
2017-08-31T04:32:21.496Z,4
2017-08-31T04:33:01.963Z,4
2017-08-31T04:33:42.424Z,4
2017-08-31T04:34:22.880Z,4
2017-08-31T04:35:03.342Z,4
2017-08-31T04:35:43.802Z,4
2017-08-31T04:36:24.258Z,4
2017-08-31T04:37:04.727Z,4
2017-08-31T04:37:45.183Z,4
2017-08-31T04:38:25.646Z,4
2017-08-31T04:39:06.095Z,0
2017-08-31T04:39:46.546Z,0
2017-08-31T04:40:26.992Z,4
2017-08-31T04:41:07.443Z,4
2017-08-31T04:41:47.891Z,4
2017-08-31T04:42:28.350Z,4
2017-08-31T04:43:08.805Z,4
2017-08-31T04:43:49.263Z,4
2017-08-31T04:44:29.712Z,4
2017-08-31T04:45:10.153Z,4
2017-08-31T04:45:50.598Z,8
2017-08-31T04:46:31.050Z,4
2017-08-31T04:47:11.503Z,8
2017-08-31T04:47:51.956Z,8
2017-08-31T04:48:32.413Z,4
2017-08-31T04:49:12.869Z,8
2017-08-31T04:49:53.323Z,8
2017-08-31T04:50:33.773Z,8
2017-08-31T04:51:14.236Z,8
2017-08-31T04:51:54.691Z,8
2017-08-31T04:52:35.144Z,8
2017-08-31T04:53:15.614Z,8
2017-08-31T04:53:56.074Z,8
2017-08-31T04:54:36.562Z,4
2017-08-31T04:55:17.017Z,8
2017-08-31T04:55:57.468Z,8
2017-08-31T04:56:37.907Z,8
2017-08-31T04:57:18.352Z,8
2017-08-31T04:57:58.805Z,8
2017-08-31T04:58:39.265Z,8
2017-08-31T04:59:20.012Z,8
2017-08-31T05:00:00.484Z,12
2017-08-31T05:00:40.917Z,8
2017-08-31T05:01:21.373Z,8
2017-08-31T05:02:02.002Z,12
2017-08-31T05:02:42.452Z,8
2017-08-31T05:03:22.910Z,12
2017-08-31T05:04:03.366Z,12
2017-08-31T05:04:43.825Z,12
2017-08-31T05:05:24.326Z,16
2017-08-31T05:06:04.785Z,16
2017-08-31T05:06:45.244Z,16
2017-08-31T05:07:25.771Z,20
2017-08-31T05:08:06.226Z,16
2017-08-31T05:08:46.680Z,16
2017-08-31T05:09:27.136Z,20
2017-08-31T05:10:07.607Z,20
2017-08-31T05:10:48.054Z,20
2017-08-31T05:11:28.514Z,24
2017-08-31T05:12:08.979Z,24
2017-08-31T05:12:49.426Z,24
2017-08-31T05:13:29.891Z,24
2017-08-31T05:14:10.346Z,32
2017-08-31T05:14:50.798Z,32
2017-08-31T05:15:31.256Z,32
2017-08-31T05:16:11.699Z,36
2017-08-31T05:16:52.151Z,32
2017-08-31T05:17:32.601Z,36
2017-08-31T05:18:13.067Z,32
2017-08-31T05:18:53.520Z,36
2017-08-31T05:19:33.975Z,36
2017-08-31T05:20:14.431Z,36
2017-08-31T05:20:54.883Z,36
2017-08-31T05:21:35.351Z,40
2017-08-31T05:22:15.804Z,52
2017-08-31T05:22:56.263Z,52
2017-08-31T05:23:36.721Z,56
2017-08-31T05:24:17.174Z,64
2017-08-31T05:24:57.630Z,64
2017-08-31T05:25:38.095Z,60
2017-08-31T05:26:18.555Z,60
2017-08-31T05:26:59.006Z,64
2017-08-31T05:27:39.457Z,64
2017-08-31T05:28:19.900Z,64
2017-08-31T05:29:00.356Z,68
2017-08-31T05:29:40.813Z,68
2017-08-31T05:30:21.259Z,68
2017-08-31T05:31:01.713Z,68
2017-08-31T05:31:42.173Z,68
2017-08-31T05:32:22.616Z,68
2017-08-31T05:33:03.079Z,80
2017-08-31T05:33:43.529Z,92
2017-08-31T05:34:24.042Z,100
2017-08-31T05:35:04.516Z,104
2017-08-31T05:35:45.197Z,112
2017-08-31T05:36:25.684Z,116
2017-08-31T05:37:06.132Z,112
2017-08-31T05:37:46.583Z,108
2017-08-31T05:38:27.340Z,100
2017-08-31T05:39:07.795Z,96
2017-08-31T05:39:48.237Z,92
2017-08-31T05:40:28.692Z,92
2017-08-31T05:41:09.227Z,92
2017-08-31T05:41:49.658Z,92
2017-08-31T05:42:30.113Z,88
2017-08-31T05:43:10.570Z,84
2017-08-31T05:43:51.048Z,84
2017-08-31T05:44:31.508Z,80
2017-08-31T05:45:11.960Z,88
2017-08-31T05:45:52.413Z,96
2017-08-31T05:46:33.920Z,104
2017-08-31T05:47:14.920Z,116
2017-08-31T05:47:55.384Z,120
2017-08-31T05:48:35.826Z,132
2017-08-31T05:49:16.284Z,148
2017-08-31T05:49:56.734Z,164
2017-08-31T05:50:37.244Z,176
2017-08-31T05:51:17.668Z,188
2017-08-31T05:51:58.146Z,196
2017-08-31T05:52:38.596Z,200
2017-08-31T05:53:19.067Z,200
2017-08-31T05:53:59.500Z,196
2017-08-31T05:54:39.956Z,184
2017-08-31T05:55:20.414Z,180
2017-08-31T05:56:00.881Z,172
2017-08-31T05:56:41.331Z,168
2017-08-31T05:57:21.783Z,160
2017-08-31T05:58:02.258Z,156
2017-08-31T05:58:43.177Z,148
2017-08-31T05:59:24.246Z,144
2017-08-31T06:00:04.711Z,144
2017-08-31T06:00:45.150Z,136
2017-08-31T06:01:25.606Z,140
2017-08-31T06:02:06.061Z,136
2017-08-31T06:02:46.508Z,132
2017-08-31T06:03:26.972Z,128
2017-08-31T06:04:07.420Z,124
2017-08-31T06:04:48.039Z,124
2017-08-31T06:05:28.493Z,124
2017-08-31T06:06:09.374Z,120
2017-08-31T06:06:50.245Z,120
2017-08-31T06:07:30.877Z,120
2017-08-31T06:08:11.334Z,112
2017-08-31T06:08:52.424Z,108
2017-08-31T06:11:09.757Z,104
2017-08-31T06:11:50.238Z,100
2017-08-31T06:12:30.689Z,100
2017-08-31T06:13:11.149Z,100
2017-08-31T06:13:51.603Z,104
2017-08-31T06:14:32.077Z,112
2017-08-31T06:15:12.533Z,120
2017-08-31T06:15:52.989Z,132
2017-08-31T06:16:33.448Z,140
2017-08-31T06:17:14.122Z,140
2017-08-31T06:17:54.528Z,140
2017-08-31T06:18:34.969Z,136
2017-08-31T06:19:15.402Z,132
2017-08-31T06:19:55.837Z,128
2017-08-31T06:20:36.243Z,132
2017-08-31T06:21:16.665Z,128
2017-08-31T06:21:57.108Z,128
2017-08-31T06:22:37.560Z,136
2017-08-31T06:23:17.999Z,140
2017-08-31T06:23:58.455Z,140
2017-08-31T06:24:38.908Z,136
2017-08-31T06:25:19.364Z,132
2017-08-31T06:25:59.823Z,128
2017-08-31T06:26:40.274Z,120
2017-08-31T06:27:20.779Z,108
2017-08-31T06:28:01.235Z,92
2017-08-31T06:28:41.688Z,72
2017-08-31T06:31:10.871Z,64
2017-08-31T06:31:51.335Z,68
2017-08-31T06:32:31.782Z,76
2017-08-31T06:33:12.234Z,76
2017-08-31T06:33:52.683Z,64
2017-08-31T06:34:33.130Z,56
2017-08-31T06:35:13.576Z,44
2017-08-31T06:35:54.018Z,48
2017-08-31T06:36:34.470Z,68
2017-08-31T06:37:14.923Z,108
2017-08-31T06:37:55.377Z,144
2017-08-31T06:38:35.828Z,164
2017-08-31T06:39:16.290Z,172
2017-08-31T06:39:56.746Z,184
2017-08-31T06:40:37.199Z,188
2017-08-31T06:41:17.663Z,188
2017-08-31T06:41:58.116Z,188
2017-08-31T06:42:38.569Z,192
2017-08-31T06:43:19.022Z,192
2017-08-31T06:43:59.476Z,196
2017-08-31T06:44:39.924Z,200
2017-08-31T06:45:20.400Z,196
2017-08-31T06:46:00.863Z,192
2017-08-31T06:46:41.306Z,176
2017-08-31T06:47:21.903Z,156
2017-08-31T06:48:02.323Z,132
2017-08-31T06:48:42.773Z,108
2017-08-31T06:49:23.235Z,104
2017-08-31T06:50:04.023Z,108
2017-08-31T06:50:44.517Z,108
2017-08-31T06:51:24.980Z,108
2017-08-31T06:52:05.442Z,104
2017-08-31T06:52:46.059Z,100
2017-08-31T06:53:26.500Z,96
2017-08-31T06:55:59.561Z,152
2017-08-31T06:56:40.114Z,160
2017-08-31T06:57:20.561Z,172
2017-08-31T06:58:01.058Z,180
2017-08-31T06:58:41.504Z,180
2017-08-31T07:00:54.522Z,172
2017-08-31T07:01:34.976Z,164
2017-08-31T07:02:15.418Z,160
2017-08-31T07:02:55.875Z,176
2017-08-31T07:03:36.316Z,188
2017-08-31T07:04:16.774Z,212
2017-08-31T07:04:57.235Z,236
2017-08-31T07:07:25.209Z,236
2017-08-31T07:08:05.663Z,212
2017-08-31T07:08:46.121Z,212
2017-08-31T07:09:26.582Z,216
2017-08-31T07:10:07.037Z,252
2017-08-31T07:10:47.475Z,272
2017-08-31T07:11:27.914Z,268
2017-08-31T07:12:08.370Z,256
2017-08-31T07:12:48.831Z,232
2017-08-31T07:13:29.283Z,200
2017-08-31T07:14:09.735Z,168
2017-08-31T07:14:50.194Z,156
2017-08-31T07:15:30.643Z,156
2017-08-31T07:16:11.091Z,160
2017-08-31T07:16:51.551Z,176
2017-08-31T07:17:32.027Z,196
2017-08-31T07:18:12.579Z,200
2017-08-31T07:18:53.024Z,192
2017-08-31T07:19:33.694Z,192
2017-08-31T07:20:14.148Z,184
2017-08-31T07:20:54.614Z,152
2017-08-31T07:21:35.069Z,116
2017-08-31T07:22:15.517Z,100
2017-08-31T07:22:56.037Z,92
2017-08-31T07:23:36.479Z,88
2017-08-31T07:24:16.933Z,92
2017-08-31T07:24:57.381Z,100
2017-08-31T07:25:37.841Z,116
2017-08-31T07:26:18.290Z,120
2017-08-31T07:26:58.743Z,116
2017-08-31T07:27:39.195Z,92
2017-08-31T07:28:19.651Z,72
2017-08-31T07:29:00.108Z,64
2017-08-31T07:29:40.564Z,64
2017-08-31T07:30:21.019Z,68
2017-08-31T07:31:01.462Z,72
2017-08-31T07:31:41.914Z,84
2017-08-31T07:32:22.358Z,88
2017-08-31T07:33:02.815Z,92
2017-08-31T07:33:43.264Z,84
2017-08-31T07:34:23.720Z,76
2017-08-31T07:35:04.162Z,60
2017-08-31T07:35:44.615Z,56
2017-08-31T07:36:25.071Z,60
2017-08-31T07:37:05.521Z,56
2017-08-31T07:37:45.990Z,52
2017-08-31T07:38:26.539Z,56
2017-08-31T07:39:07.010Z,56
2017-08-31T07:39:47.446Z,64
2017-08-31T07:40:27.903Z,64
2017-08-31T07:41:08.360Z,68
2017-08-31T07:41:48.803Z,68
2017-08-31T07:42:29.256Z,72
2017-08-31T07:43:09.708Z,76
2017-08-31T07:43:50.175Z,76
2017-08-31T07:44:30.629Z,76
2017-08-31T07:45:11.078Z,76
2017-08-31T07:45:51.535Z,80
2017-08-31T07:46:31.986Z,84
2017-08-31T07:47:12.443Z,96
2017-08-31T07:47:52.902Z,104
2017-08-31T07:48:33.359Z,108
2017-08-31T07:49:13.812Z,112
2017-08-31T07:49:54.264Z,116
2017-08-31T07:50:34.722Z,124
2017-08-31T07:51:15.182Z,132
2017-08-31T07:51:55.636Z,148
2017-08-31T07:52:36.079Z,160
2017-08-31T07:53:16.602Z,164
2017-08-31T07:53:57.070Z,164
2017-08-31T07:54:37.539Z,164
2017-08-31T07:55:17.998Z,160
2017-08-31T07:55:58.448Z,148
2017-08-31T07:56:38.897Z,144
2017-08-31T07:57:19.369Z,136
2017-08-31T07:57:59.821Z,136
2017-08-31T07:58:40.278Z,140
2017-08-31T07:59:20.734Z,148
2017-08-31T08:00:01.200Z,156
2017-08-31T08:00:41.657Z,164
2017-08-31T08:01:22.106Z,176
2017-08-31T08:02:02.604Z,196
2017-08-31T08:02:43.061Z,212
2017-08-31T08:03:23.502Z,220
2017-08-31T08:04:04.063Z,232
2017-08-31T08:04:44.537Z,248
2017-08-31T08:05:24.992Z,260
2017-08-31T08:06:05.460Z,272
2017-08-31T08:06:45.913Z,284
2017-08-31T08:07:26.368Z,292
2017-08-31T08:08:06.822Z,304
2017-08-31T08:08:47.288Z,324
2017-08-31T08:09:27.793Z,340
2017-08-31T08:10:08.234Z,352
2017-08-31T08:10:48.690Z,360
2017-08-31T08:11:29.147Z,368
2017-08-31T08:12:09.600Z,376
2017-08-31T08:12:50.048Z,384
2017-08-31T08:13:30.500Z,384
2017-08-31T08:14:10.953Z,388
2017-08-31T08:14:51.407Z,392
2017-08-31T08:15:31.872Z,392
2017-08-31T08:16:12.315Z,400
2017-08-31T08:16:52.777Z,412
2017-08-31T08:17:33.221Z,428
2017-08-31T08:18:13.671Z,452
2017-08-31T08:18:54.121Z,492
2017-08-31T08:19:34.580Z,536
2017-08-31T08:20:15.044Z,604
2017-08-31T08:20:55.497Z,688
2017-08-31T08:21:35.954Z,812
2017-08-31T08:22:16.409Z,972
2017-08-31T08:22:56.868Z,1092
2017-08-31T08:23:37.317Z,1216
2017-08-31T08:24:17.845Z,1308
2017-08-31T08:24:58.309Z,1492
2017-08-31T08:25:38.764Z,2232
2017-08-31T08:26:19.216Z,1580
2017-08-31T08:26:59.669Z,1556
2017-08-31T08:27:40.125Z,1648
2017-08-31T08:28:20.585Z,1828
2017-08-31T08:29:01.032Z,2372
2017-08-31T08:29:41.487Z,2080
2017-08-31T08:30:21.939Z,2932
2017-08-31T08:31:02.490Z,1772
2017-08-31T08:31:42.855Z,1604
2017-08-31T08:32:23.317Z,1636
2017-08-31T08:33:03.772Z,1640
2017-08-31T08:33:44.231Z,1844
2017-08-31T08:34:24.685Z,1900
2017-08-31T08:35:05.144Z,1836
2017-08-31T08:35:45.598Z,1856
2017-08-31T08:36:26.050Z,1644
2017-08-31T08:37:06.505Z,1816
2017-08-31T08:37:46.957Z,1516
2017-08-31T08:38:27.416Z,1360
2017-08-31T08:39:07.865Z,1332
2017-08-31T08:39:48.327Z,1244
2017-08-31T08:40:28.776Z,1208
2017-08-31T08:41:09.231Z,1184
2017-08-31T08:41:49.681Z,948
2017-08-31T08:42:30.135Z,964
2017-08-31T08:43:10.593Z,1132
2017-08-31T08:43:51.077Z,1020
2017-08-31T08:44:31.508Z,900
2017-08-31T08:45:11.964Z,836
2017-08-31T08:45:52.427Z,776
2017-08-31T08:46:32.869Z,824
2017-08-31T08:47:13.320Z,1032
2017-08-31T08:47:53.770Z,1064
2017-08-31T08:48:34.233Z,1200
2017-08-31T08:49:14.682Z,1292
2017-08-31T08:49:55.135Z,1364
2017-08-31T08:50:35.603Z,1528
2017-08-31T08:51:16.054Z,1408
2017-08-31T08:51:56.503Z,1088
2017-08-31T08:52:36.959Z,1176
2017-08-31T08:53:17.483Z,1148
2017-08-31T08:53:57.939Z,1120
2017-08-31T08:54:38.403Z,964
2017-08-31T08:55:18.917Z,1140
2017-08-31T08:55:59.374Z,848
2017-08-31T08:56:39.829Z,916
2017-08-31T08:57:20.285Z,992
2017-08-31T08:58:00.741Z,972
2017-08-31T08:58:41.197Z,1020
2017-08-31T08:59:21.653Z,960
2017-08-31T09:00:02.111Z,988
2017-08-31T09:00:42.567Z,964
2017-08-31T09:01:23.027Z,788
2017-08-31T09:02:03.480Z,840
2017-08-31T09:02:43.938Z,964
2017-08-31T09:03:24.396Z,984
2017-08-31T09:04:04.850Z,920
2017-08-31T09:04:45.301Z,884
2017-08-31T09:05:25.758Z,868
2017-08-31T09:06:06.220Z,960
2017-08-31T09:06:46.676Z,968
2017-08-31T09:07:27.123Z,944
2017-08-31T09:08:07.579Z,868
2017-08-31T09:08:48.056Z,848
2017-08-31T09:09:28.474Z,832
2017-08-31T09:10:08.923Z,804
2017-08-31T09:10:49.372Z,760
2017-08-31T09:11:29.839Z,756
2017-08-31T09:12:10.287Z,732
2017-08-31T09:12:50.740Z,708
2017-08-31T09:13:31.184Z,736
2017-08-31T09:14:11.636Z,776
2017-08-31T09:14:52.104Z,1292
2017-08-31T09:15:32.542Z,956
2017-08-31T09:16:12.998Z,704
2017-08-31T09:16:53.460Z,604
2017-08-31T09:17:33.912Z,480
2017-08-31T09:18:14.365Z,436
2017-08-31T09:18:54.827Z,424
2017-08-31T09:19:35.283Z,352
2017-08-31T09:20:15.738Z,280
2017-08-31T09:20:56.189Z,220
2017-08-31T09:21:36.639Z,172
2017-08-31T09:22:17.103Z,144
2017-08-31T09:22:57.552Z,152
2017-08-31T09:23:38.006Z,148
2017-08-31T09:24:18.547Z,140
2017-08-31T09:24:59.015Z,148
2017-08-31T09:25:39.465Z,172
2017-08-31T09:26:19.917Z,200
2017-08-31T09:27:00.373Z,224
2017-08-31T09:27:40.832Z,264
2017-08-31T09:28:21.297Z,324
2017-08-31T09:29:01.734Z,388
2017-08-31T09:29:42.189Z,420
2017-08-31T09:30:22.641Z,444
2017-08-31T09:31:03.093Z,488
2017-08-31T09:31:43.549Z,520
2017-08-31T09:32:24.007Z,524
2017-08-31T09:33:04.588Z,524
2017-08-31T09:33:45.037Z,572
2017-08-31T09:34:25.487Z,532
2017-08-31T09:35:05.999Z,484
2017-08-31T09:35:46.455Z,488
2017-08-31T09:36:26.910Z,496
2017-08-31T09:37:07.366Z,532
2017-08-31T09:37:47.821Z,604
2017-08-31T09:38:28.274Z,684
2017-08-31T09:39:08.736Z,836
2017-08-31T09:39:49.194Z,1040
2017-08-31T09:40:29.650Z,1060
2017-08-31T09:41:10.108Z,912
2017-08-31T09:41:50.565Z,760
2017-08-31T09:42:31.022Z,732
2017-08-31T09:43:11.478Z,832
2017-08-31T09:43:51.933Z,808
2017-08-31T09:44:32.401Z,812
2017-08-31T09:45:12.852Z,800
2017-08-31T09:45:53.303Z,732
2017-08-31T09:46:33.761Z,692
2017-08-31T09:47:14.201Z,724
2017-08-31T09:47:54.656Z,724
2017-08-31T09:48:35.129Z,688
2017-08-31T09:49:15.577Z,700
2017-08-31T09:49:56.036Z,768
2017-08-31T09:50:36.484Z,856
2017-08-31T09:51:17.023Z,892